Terminal Aerodrome Forecast
Issued by NWS Burlington, VT

Home | Current Version | Previous Version | Text Only | Print | Product List | Glossary On
Versions: 1 2 3 4 5 6 7 8 9 10 11 12 13 14 15 16 17 18 19 20
000
FTUS41 KBTV 031138
TAFBTV
TAF
KBTV 031138Z 0312/0412 36005KT 6SM BR SKC
      TEMPO 0312/0313 00000KT 2SM BR OVC002
     FM031400 35005KT P6SM SKC
     FM040000 VRB03KT P6SM SKC=

USA.gov is the U.S. government's official web portal to all federal, state and local government web resources and services.